createdAt,value
2019-05-09T00:01:23.877Z,13.20
2019-05-09T00:04:28.166Z,13.20
2019-05-09T00:07:33.697Z,13.20
2019-05-09T00:10:41.762Z,13.20
2019-05-09T00:13:44.440Z,13.20
2019-05-09T00:16:48.780Z,13.20
2019-05-09T00:19:55.071Z,13.10
2019-05-09T00:22:59.386Z,13.10
2019-05-09T00:26:04.295Z,13.20
2019-05-09T00:29:14.165Z,13.00
2019-05-09T00:32:34.614Z,13.20
2019-05-09T00:35:40.443Z,13.10
2019-05-09T00:38:45.758Z,13.20
2019-05-09T00:41:50.156Z,13.20
2019-05-09T00:44:56.081Z,13.10
2019-05-09T00:48:00.457Z,13.00
2019-05-09T00:51:04.864Z,13.10
2019-05-09T00:54:28.282Z,13.10
2019-05-09T00:57:35.695Z,13.00
2019-05-09T01:00:40.060Z,13.00
2019-05-09T01:03:44.401Z,13.00
2019-05-09T01:06:48.701Z,13.00
2019-05-09T01:09:54.335Z,13.00
2019-05-09T01:12:58.737Z,13.00
2019-05-09T01:16:04.499Z,13.00
2019-05-09T01:19:09.134Z,13.00
2019-05-09T01:22:13.514Z,13.10
2019-05-09T01:25:17.827Z,13.00
2019-05-09T01:28:23.221Z,13.20
2019-05-09T01:31:27.634Z,13.10
2019-05-09T01:34:33.933Z,13.10
2019-05-09T01:37:38.263Z,13.00
2019-05-09T01:40:43.886Z,13.00
2019-05-09T01:43:48.358Z,13.10
2019-05-09T01:46:54.048Z,13.10
2019-05-09T01:49:58.586Z,13.00
2019-05-09T01:53:03.974Z,13.00
2019-05-09T01:56:08.577Z,13.10
2019-05-09T01:59:13.725Z,13.00
2019-05-09T02:02:18.259Z,12.90
2019-05-09T02:05:24.064Z,13.00
2019-05-09T02:08:28.408Z,12.90
2019-05-09T02:11:42.444Z,12.90
2019-05-09T02:14:51.346Z,12.80
2019-05-09T02:18:13.931Z,12.80
2019-05-09T02:21:18.293Z,12.70
2019-05-09T02:24:23.406Z,12.70
2019-05-09T02:27:27.938Z,12.70
2019-05-09T02:30:35.734Z,12.60
2019-05-09T02:33:38.292Z,12.60
2019-05-09T02:36:42.619Z,12.60
2019-05-09T02:39:49.086Z,12.60
2019-05-09T02:42:52.986Z,12.60
2019-05-09T02:46:03.908Z,12.50
2019-05-09T02:49:08.926Z,12.50
2019-05-09T02:52:13.514Z,12.50
2019-05-09T02:55:18.612Z,12.50
2019-05-09T02:58:28.019Z,12.50
2019-05-09T03:01:43.935Z,12.50
2019-05-09T03:04:49.371Z,12.50
2019-05-09T03:07:53.730Z,12.50
2019-05-09T03:10:59.225Z,12.50
2019-05-09T03:14:03.843Z,12.50
2019-05-09T03:17:09.036Z,12.40
2019-05-09T03:20:21.050Z,12.40
2019-05-09T03:23:28.701Z,12.30
2019-05-09T03:26:38.600Z,12.40
2019-05-09T03:29:48.890Z,12.30
2019-05-09T03:32:52.292Z,12.30
2019-05-09T03:35:57.399Z,12.40
2019-05-09T03:39:01.832Z,12.30
2019-05-09T03:42:07.879Z,12.30
2019-05-09T03:45:13.927Z,12.20
2019-05-09T03:48:23.953Z,12.30
2019-05-09T03:51:28.273Z,12.20
2019-05-09T03:54:32.536Z,12.20
2019-05-09T03:57:39.863Z,12.30
2019-05-09T04:00:44.190Z,12.10
2019-05-09T04:03:48.621Z,12.20
2019-05-09T04:07:13.625Z,12.10
2019-05-09T04:10:18.199Z,12.10
2019-05-09T04:13:28.289Z,12.20
2019-05-09T04:16:32.797Z,12.10
2019-05-09T04:19:38.082Z,12.20
2019-05-09T04:22:43.356Z,12.10
2019-05-09T04:26:07.515Z,12.10
2019-05-09T04:29:11.647Z,12.10
2019-05-09T04:32:18.138Z,12.10
2019-05-09T04:35:21.993Z,12.10
2019-05-09T04:38:27.940Z,12.10
2019-05-09T04:41:32.404Z,12.20
2019-05-09T04:44:49.660Z,12.20
2019-05-09T04:47:54.021Z,12.20
2019-05-09T04:50:59.479Z,12.20
2019-05-09T04:54:04.042Z,12.30
2019-05-09T04:57:08.340Z,12.20
2019-05-09T05:00:14.238Z,12.20
2019-05-09T05:03:18.563Z,12.20
2019-05-09T05:06:22.860Z,12.30
2019-05-09T05:09:27.715Z,12.20
2019-05-09T05:12:32.259Z,12.40
2019-05-09T05:15:37.771Z,12.20
2019-05-09T05:18:43.012Z,12.30
2019-05-09T05:21:48.104Z,12.40
2019-05-09T05:24:59.461Z,12.30
2019-05-09T05:28:02.359Z,12.40
2019-05-09T05:31:07.410Z,12.40
2019-05-09T05:34:24.594Z,12.40
2019-05-09T05:37:28.976Z,12.50
2019-05-09T05:40:34.066Z,12.60
2019-05-09T05:43:44.069Z,12.60
2019-05-09T05:47:01.287Z,12.60
2019-05-09T05:50:24.677Z,12.70
2019-05-09T05:53:28.944Z,12.60
2019-05-09T05:56:33.322Z,12.70
2019-05-09T05:59:40.742Z,12.80
2019-05-09T06:02:47.705Z,12.90
2019-05-09T06:05:52.635Z,12.90
2019-05-09T06:08:57.911Z,12.90
2019-05-09T06:12:02.351Z,13.10
2019-05-09T06:15:28.878Z,13.20
2019-05-09T06:18:33.711Z,13.20
2019-05-09T06:21:38.458Z,13.20
2019-05-09T06:24:42.785Z,13.30
2019-05-09T06:27:48.234Z,13.30
2019-05-09T06:30:52.791Z,13.40
2019-05-09T06:33:57.939Z,13.40
2019-05-09T06:37:03.513Z,13.50
2019-05-09T06:40:09.838Z,13.60
2019-05-09T06:43:22.657Z,13.70
2019-05-09T06:46:37.715Z,13.70
2019-05-09T06:49:44.301Z,13.70
2019-05-09T06:52:48.703Z,13.70
2019-05-09T06:55:53.365Z,13.90
2019-05-09T06:58:58.229Z,13.90
2019-05-09T07:02:23.446Z,14.00
2019-05-09T07:05:35.380Z,14.00
2019-05-09T07:08:47.728Z,14.10
2019-05-09T07:11:51.916Z,14.30
2019-05-09T07:14:58.173Z,14.30
2019-05-09T07:18:02.424Z,14.50
2019-05-09T07:21:09.193Z,14.80
2019-05-09T07:24:13.500Z,15.00
2019-05-09T07:27:18.072Z,15.10
2019-05-09T07:30:39.872Z,15.50
2019-05-09T07:33:51.669Z,15.70
2019-05-09T07:36:58.086Z,16.00
2019-05-09T07:40:02.393Z,16.20
2019-05-09T07:43:07.709Z,16.50
2019-05-09T07:46:31.269Z,16.70
2019-05-09T07:49:37.572Z,16.90
2019-05-09T07:52:41.603Z,17.20
2019-05-09T07:55:47.333Z,17.70
2019-05-09T07:58:51.799Z,18.10
2019-05-09T08:01:58.152Z,18.20
2019-05-09T08:05:02.159Z,18.30
2019-05-09T08:08:09.744Z,18.30
2019-05-09T08:11:14.139Z,18.20
2019-05-09T08:14:18.850Z,18.30
2019-05-09T08:17:23.530Z,18.40
2019-05-09T08:20:28.180Z,18.40
2019-05-09T08:23:32.542Z,18.30
2019-05-09T08:26:39.317Z,18.40
2019-05-09T08:29:42.968Z,18.40
2019-05-09T08:32:48.302Z,18.60
2019-05-09T08:35:52.956Z,18.80
2019-05-09T08:38:58.695Z,18.90
2019-05-09T08:42:03.692Z,18.70
2019-05-09T08:45:23.311Z,18.50
2019-05-09T08:48:14.507Z,18.50
2019-05-09T08:51:36.722Z,18.40
2019-05-09T08:54:51.443Z,18.40
2019-05-09T08:57:58.412Z,18.50
2019-05-09T09:01:04.360Z,18.80
2019-05-09T09:04:08.279Z,18.80
2019-05-09T09:07:12.637Z,18.90
2019-05-09T09:10:18.653Z,18.80
2019-05-09T09:13:23.314Z,18.60
2019-05-09T09:16:28.355Z,18.70
2019-05-09T09:19:33.281Z,19.00
2019-05-09T09:22:37.770Z,19.40
2019-05-09T09:25:42.246Z,20.10
2019-05-09T09:28:48.416Z,20.90
2019-05-09T09:31:53.353Z,21.80
2019-05-09T09:34:58.726Z,22.90
2019-05-09T09:38:04.517Z,23.70
2019-05-09T09:41:08.766Z,24.60
2019-05-09T09:44:13.107Z,25.10
2019-05-09T09:47:22.422Z,25.50
2019-05-09T09:50:23.572Z,25.90
2019-05-09T09:53:28.267Z,26.10
2019-05-09T09:56:32.823Z,26.30
2019-05-09T10:00:02.356Z,26.30
2019-05-09T10:03:07.972Z,26.10
2019-05-09T10:06:12.740Z,26.40
2019-05-09T10:09:17.597Z,26.70
2019-05-09T10:12:21.915Z,26.60
2019-05-09T10:15:38.404Z,26.50
2019-05-09T10:18:57.895Z,25.90
2019-05-09T10:22:08.675Z,25.30
2019-05-09T10:25:13.225Z,24.60
2019-05-09T10:28:21.575Z,23.90
2019-05-09T10:31:23.972Z,23.40
2019-05-09T10:34:28.921Z,22.90
2019-05-09T10:37:35.243Z,22.50
2019-05-09T10:40:40.386Z,21.90
2019-05-09T10:44:03.876Z,21.40
2019-05-09T10:47:19.269Z,21.00
2019-05-09T10:50:23.093Z,21.10
2019-05-09T10:53:28.396Z,21.70
2019-05-09T10:56:32.857Z,22.40
2019-05-09T10:59:37.670Z,23.10
2019-05-09T11:02:42.537Z,23.90
2019-05-09T11:05:47.143Z,24.40
2019-05-09T11:08:51.568Z,24.80
2019-05-09T11:11:58.742Z,25.60
2019-05-09T11:15:02.146Z,26.10
2019-05-09T11:18:08.128Z,26.10
2019-05-09T11:21:12.785Z,25.90
2019-05-09T11:24:18.776Z,25.50
2019-05-09T11:27:23.202Z,24.90
2019-05-09T11:30:28.704Z,24.30
2019-05-09T11:33:33.385Z,23.70
2019-05-09T11:36:38.036Z,23.10
2019-05-09T11:39:43.025Z,22.60
2019-05-09T11:42:48.242Z,22.10
2019-05-09T11:45:53.623Z,21.70
2019-05-09T11:48:59.542Z,21.50
2019-05-09T11:52:04.301Z,21.20
2019-05-09T11:55:27.496Z,21.00
2019-05-09T11:58:18.301Z,20.90
2019-05-09T12:01:22.978Z,21.10
2019-05-09T12:04:28.611Z,21.00
2019-05-09T12:07:32.954Z,21.20
2019-05-09T12:10:38.216Z,21.20
2019-05-09T12:13:42.707Z,21.30
2019-05-09T12:16:48.022Z,21.30
2019-05-09T12:20:08.801Z,21.30
2019-05-09T12:22:58.757Z,21.30
2019-05-09T12:26:03.335Z,21.10
2019-05-09T12:29:19.271Z,21.00
2019-05-09T12:32:22.659Z,20.70
2019-05-09T12:35:26.976Z,20.50
2019-05-09T12:38:31.295Z,20.40
2019-05-09T12:41:38.243Z,20.30
2019-05-09T12:44:41.824Z,20.00
2019-05-09T12:47:46.238Z,19.80
2019-05-09T12:50:50.609Z,19.70
2019-05-09T12:53:57.626Z,19.60
2019-05-09T12:57:00.979Z,19.70
2019-05-09T13:00:06.067Z,19.60
2019-05-09T13:03:12.281Z,19.50
2019-05-09T13:06:19.820Z,19.20
2019-05-09T13:09:24.503Z,19.00
2019-05-09T13:12:29.258Z,18.60
2019-05-09T13:15:41.391Z,18.30
2019-05-09T13:19:03.194Z,18.10
2019-05-09T13:22:08.279Z,17.90
2019-05-09T13:25:12.845Z,18.10
2019-05-09T13:28:17.618Z,18.30
2019-05-09T13:31:23.444Z,18.50
2019-05-09T13:34:28.355Z,18.80
2019-05-09T13:37:32.978Z,18.90
2019-05-09T13:40:37.332Z,19.20
2019-05-09T13:43:47.823Z,19.30
2019-05-09T13:46:48.913Z,19.40
2019-05-09T13:49:55.911Z,19.50
2019-05-09T13:52:59.574Z,19.50
2019-05-09T13:56:08.375Z,19.50
2019-05-09T13:59:11.828Z,19.70
2019-05-09T14:02:18.886Z,20.00
2019-05-09T14:05:23.627Z,20.00
2019-05-09T14:08:28.681Z,20.10
2019-05-09T14:11:33.070Z,20.10
2019-05-09T14:14:38.018Z,20.00
2019-05-09T14:17:49.694Z,19.80
2019-05-09T14:20:48.508Z,19.80
2019-05-09T14:24:09.917Z,19.60
2019-05-09T14:26:58.982Z,19.60
2019-05-09T14:30:03.541Z,19.50
2019-05-09T14:33:08.315Z,19.50
2019-05-09T14:36:12.700Z,19.80
2019-05-09T14:39:18.018Z,19.70
2019-05-09T14:42:22.543Z,19.80
2019-05-09T14:45:27.998Z,19.70
2019-05-09T14:48:32.464Z,19.70
2019-05-09T14:51:38.096Z,19.70
2019-05-09T14:54:42.688Z,19.50
2019-05-09T14:57:47.994Z,19.40
2019-05-09T15:00:52.519Z,19.30
2019-05-09T15:03:58.635Z,19.30
2019-05-09T15:07:07.600Z,19.50
2019-05-09T15:10:12.150Z,19.60
2019-05-09T15:13:18.411Z,19.80
2019-05-09T15:16:22.923Z,19.90
2019-05-09T15:19:28.728Z,19.80
2019-05-09T15:22:33.232Z,19.80
2019-05-09T15:25:40.384Z,19.70
2019-05-09T15:28:44.771Z,19.60
2019-05-09T15:31:54.871Z,19.40
2019-05-09T15:34:57.562Z,19.30
2019-05-09T15:38:01.238Z,19.50
2019-05-09T15:41:12.108Z,19.30
2019-05-09T15:44:11.618Z,19.50
2019-05-09T15:47:23.211Z,19.40
2019-05-09T15:50:27.904Z,19.50
2019-05-09T15:53:32.349Z,19.30
2019-05-09T15:56:38.428Z,19.40
2019-05-09T15:59:43.338Z,19.40
2019-05-09T16:02:48.528Z,19.40
2019-05-09T16:05:53.089Z,19.30
2019-05-09T16:08:58.525Z,19.30
2019-05-09T16:12:03.174Z,19.30
2019-05-09T16:15:08.114Z,19.20
2019-05-09T16:18:12.738Z,19.20
2019-05-09T16:21:17.059Z,19.10
2019-05-09T16:24:22.579Z,19.00
2019-05-09T16:27:26.950Z,19.00
2019-05-09T16:30:31.296Z,19.00
2019-05-09T16:33:35.625Z,19.00
2019-05-09T16:36:40.330Z,18.80
2019-05-09T16:39:44.637Z,18.90
2019-05-09T16:42:49.021Z,18.90
2019-05-09T16:45:53.392Z,18.80
2019-05-09T16:49:00.529Z,18.70
2019-05-09T16:52:07.350Z,18.80
2019-05-09T16:55:17.934Z,18.70
2019-05-09T16:58:23.240Z,18.70
2019-05-09T17:01:28.356Z,18.60
2019-05-09T17:04:32.959Z,18.50
2019-05-09T17:07:38.459Z,18.30
2019-05-09T17:10:42.982Z,18.20
2019-05-09T17:13:48.495Z,18.00
2019-05-09T17:16:53.225Z,17.90
2019-05-09T17:20:00.675Z,17.70
2019-05-09T17:23:15.262Z,17.60
2019-05-09T17:26:19.914Z,17.40
2019-05-09T17:29:24.260Z,17.30
2019-05-09T17:32:28.856Z,17.30
2019-05-09T17:35:33.288Z,17.10
2019-05-09T17:38:38.334Z,17.00
2019-05-09T17:41:44.926Z,16.90
2019-05-09T17:44:49.329Z,16.90
2019-05-09T17:47:53.684Z,16.70
2019-05-09T17:50:58.109Z,16.70
2019-05-09T17:54:04.074Z,16.60
2019-05-09T17:57:10.610Z,16.50
2019-05-09T18:00:19.306Z,16.40
2019-05-09T18:03:21.508Z,16.40
2019-05-09T18:06:28.175Z,16.40
2019-05-09T18:09:32.046Z,16.40
2019-05-09T18:12:39.225Z,16.20
2019-05-09T18:15:43.578Z,16.10
2019-05-09T18:18:48.571Z,16.00
2019-05-09T18:21:52.979Z,16.00
2019-05-09T18:24:57.773Z,15.90
2019-05-09T18:28:02.307Z,15.80
2019-05-09T18:31:08.138Z,15.70
2019-05-09T18:34:12.510Z,15.80
2019-05-09T18:37:17.295Z,15.60
2019-05-09T18:40:21.903Z,15.60
2019-05-09T18:43:27.422Z,15.60
2019-05-09T18:46:32.148Z,15.50
2019-05-09T18:49:36.510Z,15.40
2019-05-09T18:52:42.416Z,15.30
2019-05-09T18:55:47.922Z,15.30
2019-05-09T18:58:55.984Z,15.30
2019-05-09T19:02:00.386Z,15.30
2019-05-09T19:05:08.185Z,15.30
2019-05-09T19:08:12.558Z,15.20
2019-05-09T19:11:16.897Z,15.10
2019-05-09T19:14:22.788Z,15.10
2019-05-09T19:17:44.729Z,15.10
2019-05-09T19:20:54.337Z,15.00
2019-05-09T19:23:58.714Z,14.90
2019-05-09T19:27:03.040Z,15.00
2019-05-09T19:30:07.790Z,14.90
2019-05-09T19:33:12.885Z,14.90
2019-05-09T19:36:18.888Z,14.90
2019-05-09T19:39:24.219Z,14.80
2019-05-09T19:42:29.110Z,14.80
2019-05-09T19:45:33.968Z,14.70
2019-05-09T19:48:38.871Z,14.70
2019-05-09T19:51:45.297Z,14.70
2019-05-09T19:54:50.392Z,14.60
2019-05-09T19:57:55.160Z,14.50
2019-05-09T20:01:00.167Z,14.60
2019-05-09T20:04:04.591Z,14.40
2019-05-09T20:07:09.449Z,14.50
2019-05-09T20:10:32.197Z,14.40
2019-05-09T20:13:53.975Z,14.30
2019-05-09T20:16:59.491Z,14.30
2019-05-09T20:20:03.886Z,14.20
2019-05-09T20:23:08.602Z,14.10
2019-05-09T20:26:15.935Z,14.10
2019-05-09T20:29:20.742Z,14.00
2019-05-09T20:32:25.079Z,14.00
2019-05-09T20:35:30.069Z,13.90
2019-05-09T20:38:34.673Z,13.90
2019-05-09T20:41:43.042Z,13.90
2019-05-09T20:44:48.667Z,13.90
2019-05-09T20:47:54.414Z,13.80
2019-05-09T20:51:00.426Z,13.80
2019-05-09T20:54:18.977Z,13.80
2019-05-09T20:57:11.943Z,13.80
2019-05-09T21:00:17.601Z,13.70
2019-05-09T21:03:22.258Z,13.70
2019-05-09T21:06:27.992Z,13.80
2019-05-09T21:09:32.669Z,13.70
2019-05-09T21:12:37.247Z,13.70
2019-05-09T21:15:41.834Z,13.70
2019-05-09T21:18:46.409Z,13.60
2019-05-09T21:21:50.901Z,13.60
2019-05-09T21:24:55.408Z,13.50
2019-05-09T21:27:59.995Z,13.60
2019-05-09T21:31:04.566Z,13.60
2019-05-09T21:34:09.091Z,13.60
2019-05-09T21:37:14.053Z,13.60
2019-05-09T21:40:37.760Z,13.50
2019-05-09T21:43:42.154Z,13.50
2019-05-09T21:46:46.552Z,13.50
2019-05-09T21:49:50.890Z,13.50
2019-05-09T21:52:55.231Z,13.50
2019-05-09T21:56:05.418Z,13.50
2019-05-09T21:59:09.758Z,13.40
2019-05-09T22:02:14.558Z,13.40
2019-05-09T22:05:19.259Z,13.30
2019-05-09T22:08:23.580Z,13.40
2019-05-09T22:11:27.895Z,13.40
2019-05-09T22:14:33.659Z,13.20
2019-05-09T22:17:40.204Z,13.20
2019-05-09T22:20:44.618Z,13.20
2019-05-09T22:23:56.426Z,13.20
2019-05-09T22:26:57.995Z,13.20
2019-05-09T22:30:02.400Z,13.20
2019-05-09T22:33:06.759Z,13.20
2019-05-09T22:36:11.133Z,13.20
2019-05-09T22:39:15.428Z,13.30
2019-05-09T22:42:19.742Z,13.20
2019-05-09T22:45:24.045Z,13.20
2019-05-09T22:48:29.478Z,13.20
2019-05-09T22:51:33.789Z,13.20
2019-05-09T22:54:38.152Z,13.20
2019-05-09T22:57:42.482Z,13.10
2019-05-09T23:00:46.807Z,13.20
2019-05-09T23:03:51.158Z,13.10
2019-05-09T23:06:55.487Z,13.00
2019-05-09T23:09:59.868Z,13.10
2019-05-09T23:13:04.178Z,13.10
2019-05-09T23:16:08.569Z,13.10
2019-05-09T23:19:12.893Z,13.20
2019-05-09T23:22:17.293Z,13.30
2019-05-09T23:25:21.550Z,13.20
2019-05-09T23:28:26.507Z,13.20
2019-05-09T23:31:52.626Z,13.20
2019-05-09T23:34:56.928Z,13.10
2019-05-09T23:38:01.240Z,13.30
2019-05-09T23:41:05.540Z,13.10
2019-05-09T23:44:09.866Z,13.20
2019-05-09T23:47:14.159Z,13.20
2019-05-09T23:50:18.360Z,13.00
2019-05-09T23:53:31.542Z,13.00
2019-05-09T23:56:53.463Z,13.00
